sensor_id;sensor_type;location;lat;lon;timestamp;pressure;altitude;pressure_sealevel;temperature;humidity
7180;BME280;3631;42.152;24.756;2022-10-17T00:01:23;100796.97;;;9.57;100.00
7180;BME280;3631;42.152;24.756;2022-10-17T00:03:50;100805.66;;;9.45;100.00
7180;BME280;3631;42.152;24.756;2022-10-17T00:06:17;100802.19;;;9.38;100.00
7180;BME280;3631;42.152;24.756;2022-10-17T00:08:44;100803.88;;;9.48;100.00
7180;BME280;3631;42.152;24.756;2022-10-17T00:11:14;100803.00;;;9.51;100.00
7180;BME280;3631;42.152;24.756;2022-10-17T00:13:43;100807.31;;;9.55;100.00
7180;BME280;3631;42.152;24.756;2022-10-17T00:16:10;100785.78;;;9.39;100.00
7180;BME280;3631;42.152;24.756;2022-10-17T00:18:37;100802.19;;;9.46;100.00
7180;BME280;3631;42.152;24.756;2022-10-17T00:21:04;100812.53;;;9.52;100.00
7180;BME280;3631;42.152;24.756;2022-10-17T00:23:32;100811.69;;;9.41;100.00
7180;BME280;3631;42.152;24.756;2022-10-17T00:26:00;100805.69;;;9.36;100.00
7180;BME280;3631;42.152;24.756;2022-10-17T00:28:27;100811.72;;;9.35;100.00
7180;BME280;3631;42.152;24.756;2022-10-17T00:30:56;100807.38;;;9.40;100.00
7180;BME280;3631;42.152;24.756;2022-10-17T00:33:24;100806.53;;;9.33;100.00
7180;BME280;3631;42.152;24.756;2022-10-17T00:35:51;100767.75;;;9.09;100.00
7180;BME280;3631;42.152;24.756;2022-10-17T00:38:27;100806.56;;;9.18;100.00
7180;BME280;3631;42.152;24.756;2022-10-17T00:40:54;100810.03;;;9.19;100.00
7180;BME280;3631;42.152;24.756;2022-10-17T00:43:21;100807.47;;;9.14;100.00
7180;BME280;3631;42.152;24.756;2022-10-17T00:45:48;100791.06;;;9.04;100.00
7180;BME280;3631;42.152;24.756;2022-10-17T00:48:16;100789.34;;;9.05;100.00
7180;BME280;3631;42.152;24.756;2022-10-17T00:50:45;100813.50;;;9.24;100.00
7180;BME280;3631;42.152;24.756;2022-10-17T00:53:15;100817.78;;;9.26;100.00
7180;BME280;3631;42.152;24.756;2022-10-17T00:55:47;100811.72;;;9.35;100.00
7180;BME280;3631;42.152;24.756;2022-10-17T00:58:15;100818.59;;;9.42;100.00
7180;BME280;3631;42.152;24.756;2022-10-17T01:00:43;100810.88;;;9.34;100.00
7180;BME280;3631;42.152;24.756;2022-10-17T01:03:10;100815.19;;;9.29;100.00
7180;BME280;3631;42.152;24.756;2022-10-17T01:05:39;100810.03;;;9.17;100.00
7180;BME280;3631;42.152;24.756;2022-10-17T01:08:07;100812.66;;;9.11;100.00
7180;BME280;3631;42.152;24.756;2022-10-17T01:10:43;100807.47;;;9.05;100.00
7180;BME280;3631;42.152;24.756;2022-10-17T01:13:17;100805.78;;;9.01;100.00
7180;BME280;3631;42.152;24.756;2022-10-17T01:15:58;100816.97;;;8.94;100.00
7180;BME280;3631;42.152;24.756;2022-10-17T01:18:35;100816.16;;;8.90;100.00
7180;BME280;3631;42.152;24.756;2022-10-17T01:21:34;100812.69;;;8.91;100.00
7180;BME280;3631;42.152;24.756;2022-10-17T01:24:28;100819.56;;;8.94;100.00
7180;BME280;3631;42.152;24.756;2022-10-17T01:32:49;100819.59;;;8.85;100.00
7180;BME280;3631;42.152;24.756;2022-10-17T01:35:22;100817.03;;;8.80;100.00
7180;BME280;3631;42.152;24.756;2022-10-17T01:37:55;100819.59;;;8.79;100.00
7180;BME280;3631;42.152;24.756;2022-10-17T01:40:28;100819.59;;;8.79;100.00
7180;BME280;3631;42.152;24.756;2022-10-17T01:42:58;100821.31;;;8.73;100.00
7180;BME280;3631;42.152;24.756;2022-10-17T01:45:30;100813.56;;;8.72;100.00
7180;BME280;3631;42.152;24.756;2022-10-17T01:48:06;100816.13;;;8.70;100.00
7180;BME280;3631;42.152;24.756;2022-10-17T01:50:38;100817.88;;;8.74;100.00
7180;BME280;3631;42.152;24.756;2022-10-17T01:53:10;100814.44;;;8.76;100.00
7180;BME280;3631;42.152;24.756;2022-10-17T01:55:40;100829.09;;;8.77;100.00
7180;BME280;3631;42.152;24.756;2022-10-17T01:58:11;100821.34;;;8.64;100.00
7180;BME280;3631;42.152;24.756;2022-10-17T02:00:41;100822.19;;;8.60;100.00
7180;BME280;3631;42.152;24.756;2022-10-17T02:03:13;100833.41;;;8.71;100.00
7180;BME280;3631;42.152;24.756;2022-10-17T02:05:41;100838.59;;;8.65;100.00
7180;BME280;3631;42.152;24.756;2022-10-17T02:08:10;100800.56;;;8.28;100.00
7180;BME280;3631;42.152;24.756;2022-10-17T02:10:39;100836.84;;;8.40;100.00
7180;BME280;3631;42.152;24.756;2022-10-17T02:13:12;100839.44;;;8.32;100.00
7180;BME280;3631;42.152;24.756;2022-10-17T02:15:55;100841.97;;;8.28;100.00
7180;BME280;3631;42.152;24.756;2022-10-17T02:18:39;100843.66;;;8.15;100.00
7180;BME280;3631;42.152;24.756;2022-10-17T02:21:13;100838.47;;;8.14;100.00
7180;BME280;3631;42.152;24.756;2022-10-17T02:23:45;100850.53;;;8.13;100.00
7180;BME280;3631;42.152;24.756;2022-10-17T02:26:20;100843.66;;;8.11;100.00
7180;BME280;3631;42.152;24.756;2022-10-17T02:28:58;100846.25;;;8.17;100.00
7180;BME280;3631;42.152;24.756;2022-10-17T02:31:33;100840.22;;;8.16;100.00
7180;BME280;3631;42.152;24.756;2022-10-17T02:34:08;100847.13;;;8.26;100.00
7180;BME280;3631;42.152;24.756;2022-10-17T02:36:39;100854.88;;;8.19;100.00
7180;BME280;3631;42.152;24.756;2022-10-17T02:39:08;100855.75;;;8.18;100.00
7180;BME280;3631;42.152;24.756;2022-10-17T02:41:37;100870.38;;;8.10;100.00
7180;BME280;3631;42.152;24.756;2022-10-17T02:44:06;100873.84;;;8.16;100.00
7180;BME280;3631;42.152;24.756;2022-10-17T02:46:34;100886.78;;;8.18;100.00
7180;BME280;3631;42.152;24.756;2022-10-17T02:49:09;100872.97;;;8.14;100.00
7180;BME280;3631;42.152;24.756;2022-10-17T02:51:41;100876.41;;;8.15;100.00
7180;BME280;3631;42.152;24.756;2022-10-17T02:54:16;100874.63;;;7.95;100.00
7180;BME280;3631;42.152;24.756;2022-10-17T02:56:48;100875.47;;;7.93;100.00
7180;BME280;3631;42.152;24.756;2022-10-17T02:59:19;100873.78;;;7.95;100.00
7180;BME280;3631;42.152;24.756;2022-10-17T03:01:47;100886.66;;;7.90;100.00
7180;BME280;3631;42.152;24.756;2022-10-17T03:04:17;100880.66;;;7.94;100.00
7180;BME280;3631;42.152;24.756;2022-10-17T03:06:46;100887.53;;;7.91;100.00
7180;BME280;3631;42.152;24.756;2022-10-17T03:09:14;100887.53;;;7.92;100.00
7180;BME280;3631;42.152;24.756;2022-10-17T03:11:41;100892.69;;;7.91;100.00
7180;BME280;3631;42.152;24.756;2022-10-17T03:14:08;100892.72;;;7.86;100.00
7180;BME280;3631;42.152;24.756;2022-10-17T03:16:35;100890.97;;;7.87;100.00
7180;BME280;3631;42.152;24.756;2022-10-17T03:19:02;100888.38;;;7.85;100.00
7180;BME280;3631;42.152;24.756;2022-10-17T03:21:31;100859.03;;;7.67;100.00
7180;BME280;3631;42.152;24.756;2022-10-17T03:23:58;100890.06;;;7.80;100.00
7180;BME280;3631;42.152;24.756;2022-10-17T03:26:24;100900.44;;;7.83;100.00
7180;BME280;3631;42.152;24.756;2022-10-17T03:28:51;100892.69;;;7.85;100.00
7180;BME280;3631;42.152;24.756;2022-10-17T03:31:18;100873.72;;;7.78;100.00
7180;BME280;3631;42.152;24.756;2022-10-17T03:33:45;100882.34;;;7.82;100.00
7180;BME280;3631;42.152;24.756;2022-10-17T03:36:14;100885.81;;;7.87;100.00
7180;BME280;3631;42.152;24.756;2022-10-17T03:38:43;100886.66;;;7.86;100.00
7180;BME280;3631;42.152;24.756;2022-10-17T03:41:11;100888.38;;;7.85;100.00
7180;BME280;3631;42.152;24.756;2022-10-17T03:43:38;100891.84;;;7.90;100.00
7180;BME280;3631;42.152;24.756;2022-10-17T03:46:06;100886.63;;;7.81;100.00
7180;BME280;3631;42.152;24.756;2022-10-17T03:48:33;100890.09;;;7.77;100.00
7180;BME280;3631;42.152;24.756;2022-10-17T03:51:00;100891.78;;;7.74;100.00
7180;BME280;3631;42.152;24.756;2022-10-17T03:53:27;100899.53;;;7.74;100.00
7180;BME280;3631;42.152;24.756;2022-10-17T03:55:56;100877.06;;;7.56;100.00
7180;BME280;3631;42.152;24.756;2022-10-17T03:58:23;100896.91;;;7.69;100.00
7180;BME280;3631;42.152;24.756;2022-10-17T04:00:50;100894.38;;;7.75;100.00
7180;BME280;3631;42.152;24.756;2022-10-17T04:03:17;100897.84;;;7.77;100.00
7180;BME280;3631;42.152;24.756;2022-10-17T04:05:44;100895.25;;;7.83;100.00
7180;BME280;3631;42.152;24.756;2022-10-17T04:08:11;100888.41;;;7.93;100.00
7180;BME280;3631;42.152;24.756;2022-10-17T04:10:38;100889.28;;;7.95;100.00
7180;BME280;3631;42.152;24.756;2022-10-17T04:13:06;100892.75;;;7.98;100.00
7180;BME280;3631;42.152;24.756;2022-10-17T04:15:33;100884.09;;;7.92;100.00
7180;BME280;3631;42.152;24.756;2022-10-17T04:18:00;100898.75;;;7.93;100.00
7180;BME280;3631;42.152;24.756;2022-10-17T04:20:27;100894.44;;;7.92;100.00
7180;BME280;3631;42.152;24.756;2022-10-17T04:22:53;100895.28;;;7.86;100.00
7180;BME280;3631;42.152;24.756;2022-10-17T04:25:20;100898.72;;;7.85;100.00
7180;BME280;3631;42.152;24.756;2022-10-17T04:27:47;100900.47;;;7.91;100.00
7180;BME280;3631;42.152;24.756;2022-10-17T04:30:16;100911.63;;;7.84;100.00
7180;BME280;3631;42.152;24.756;2022-10-17T04:32:43;100907.31;;;7.78;100.00
7180;BME280;3631;42.152;24.756;2022-10-17T04:35:10;100911.63;;;7.78;100.00
7180;BME280;3631;42.152;24.756;2022-10-17T04:37:36;100909.03;;;7.79;100.00
7180;BME280;3631;42.152;24.756;2022-10-17T04:40:04;100909.91;;;7.78;100.00
7180;BME280;3631;42.152;24.756;2022-10-17T04:42:31;100912.53;;;7.87;100.00
7180;BME280;3631;42.152;24.756;2022-10-17T04:44:58;100924.63;;;7.90;100.00
7180;BME280;3631;42.152;24.756;2022-10-17T04:47:26;100926.34;;;7.89;100.00
7180;BME280;3631;42.152;24.756;2022-10-17T04:49:53;100926.34;;;7.89;100.00
7180;BME280;3631;42.152;24.756;2022-10-17T04:52:20;100926.31;;;7.92;100.00
7180;BME280;3631;42.152;24.756;2022-10-17T04:54:47;100916.00;;;7.89;100.00
7180;BME280;3631;42.152;24.756;2022-10-17T04:57:14;100923.78;;;8.01;100.00
7180;BME280;3631;42.152;24.756;2022-10-17T04:59:41;100929.84;;;8.07;100.00
7180;BME280;3631;42.152;24.756;2022-10-17T05:02:08;100943.66;;;8.09;100.00
7180;BME280;3631;42.152;24.756;2022-10-17T05:04:37;100938.50;;;8.12;100.00
7180;BME280;3631;42.152;24.756;2022-10-17T05:07:03;100952.34;;;8.29;100.00
7180;BME280;3631;42.152;24.756;2022-10-17T05:09:30;100961.03;;;8.40;100.00
7180;BME280;3631;42.152;24.756;2022-10-17T05:11:57;100974.03;;;8.70;100.00
7180;BME280;3631;42.152;24.756;2022-10-17T05:14:24;100972.38;;;9.45;100.00
7180;BME280;3631;42.152;24.756;2022-10-17T05:16:51;100966.78;;;10.66;99.65
7180;BME280;3631;42.152;24.756;2022-10-17T05:19:18;100974.63;;;11.67;91.33
7180;BME280;3631;42.152;24.756;2022-10-17T05:21:46;100986.56;;;12.61;84.71
7180;BME280;3631;42.152;24.756;2022-10-17T05:24:13;100996.00;;;14.23;76.64
7180;BME280;3631;42.152;24.756;2022-10-17T05:26:40;100994.69;;;15.58;67.79
7180;BME280;3631;42.152;24.756;2022-10-17T05:29:07;101008.69;;;16.22;63.21
7180;BME280;3631;42.152;24.756;2022-10-17T05:31:34;101018.34;;;17.08;59.65
7180;BME280;3631;42.152;24.756;2022-10-17T05:34:02;101013.63;;;17.46;57.07
7180;BME280;3631;42.152;24.756;2022-10-17T05:36:29;101019.63;;;18.73;53.26
7180;BME280;3631;42.152;24.756;2022-10-17T05:38:57;101027.25;;;19.45;49.64
7180;BME280;3631;42.152;24.756;2022-10-17T05:41:24;101017.50;;;19.69;48.75
7180;BME280;3631;42.152;24.756;2022-10-17T05:43:51;101029.91;;;20.46;46.82
7180;BME280;3631;42.152;24.756;2022-10-17T05:46:18;101042.63;;;21.66;44.06
7180;BME280;3631;42.152;24.756;2022-10-17T05:48:45;101034.47;;;22.38;40.88
7180;BME280;3631;42.152;24.756;2022-10-17T05:51:12;101036.59;;;22.80;40.57
7180;BME280;3631;42.152;24.756;2022-10-17T05:53:40;101036.28;;;22.69;40.43
7180;BME280;3631;42.152;24.756;2022-10-17T05:56:10;101045.53;;;23.41;38.78
7180;BME280;3631;42.152;24.756;2022-10-17T05:58:39;101036.84;;;24.13;37.12
7180;BME280;3631;42.152;24.756;2022-10-17T06:01:07;101029.41;;;24.48;36.39
7180;BME280;3631;42.152;24.756;2022-10-17T06:03:34;101059.03;;;25.51;34.58
7180;BME280;3631;42.152;24.756;2022-10-17T06:06:04;101064.53;;;25.75;33.92
7180;BME280;3631;42.152;24.756;2022-10-17T06:08:32;101070.47;;;25.65;33.66
7180;BME280;3631;42.152;24.756;2022-10-17T06:10:59;101063.16;;;25.42;34.34
7180;BME280;3631;42.152;24.756;2022-10-17T06:13:28;101068.44;;;26.21;33.22
7180;BME280;3631;42.152;24.756;2022-10-17T06:15:55;101065.13;;;26.68;32.49
7180;BME280;3631;42.152;24.756;2022-10-17T06:18:22;101072.72;;;27.82;30.35
7180;BME280;3631;42.152;24.756;2022-10-17T06:20:49;101084.59;;;28.25;29.98
7180;BME280;3631;42.152;24.756;2022-10-17T06:23:16;101080.88;;;28.03;29.39
7180;BME280;3631;42.152;24.756;2022-10-17T06:25:43;101086.91;;;27.83;29.63
7180;BME280;3631;42.152;24.756;2022-10-17T06:28:10;101090.69;;;28.60;28.53
7180;BME280;3631;42.152;24.756;2022-10-17T06:30:38;101097.06;;;29.24;27.75
7180;BME280;3631;42.152;24.756;2022-10-17T06:33:05;101099.41;;;29.18;27.84
7180;BME280;3631;42.152;24.756;2022-10-17T06:35:32;101090.91;;;28.68;28.11
7180;BME280;3631;42.152;24.756;2022-10-17T06:37:59;101096.53;;;27.97;28.83
7180;BME280;3631;42.152;24.756;2022-10-17T06:40:26;101096.09;;;25.40;31.83
7180;BME280;3631;42.152;24.756;2022-10-17T06:42:55;101084.53;;;23.55;35.00
7180;BME280;3631;42.152;24.756;2022-10-17T06:45:23;101082.78;;;21.90;38.24
7180;BME280;3631;42.152;24.756;2022-10-17T06:47:51;101065.88;;;20.08;42.77
7180;BME280;3631;42.152;24.756;2022-10-17T06:50:18;101073.19;;;18.71;46.87
7180;BME280;3631;42.152;24.756;2022-10-17T06:52:45;101064.19;;;17.78;50.53
7180;BME280;3631;42.152;24.756;2022-10-17T06:55:16;101072.13;;;17.23;52.90
7180;BME280;3631;42.152;24.756;2022-10-17T06:57:42;101047.63;;;16.36;56.12
7180;BME280;3631;42.152;24.756;2022-10-17T07:00:11;101074.19;;;15.89;58.88
7180;BME280;3631;42.152;24.756;2022-10-17T07:02:38;101072.78;;;15.76;60.64
7180;BME280;3631;42.152;24.756;2022-10-17T07:05:07;101070.56;;;15.59;61.81
7180;BME280;3631;42.152;24.756;2022-10-17T07:07:34;101070.88;;;15.46;62.32
7180;BME280;3631;42.152;24.756;2022-10-17T07:10:01;101069.63;;;15.25;64.79
7180;BME280;3631;42.152;24.756;2022-10-17T07:12:28;101046.22;;;15.19;63.62
7180;BME280;3631;42.152;24.756;2022-10-17T07:14:55;101077.34;;;15.31;63.41
7180;BME280;3631;42.152;24.756;2022-10-17T07:17:22;101084.53;;;15.21;64.63
7180;BME280;3631;42.152;24.756;2022-10-17T07:19:49;101077.06;;;15.05;64.99
7180;BME280;3631;42.152;24.756;2022-10-17T07:22:17;101080.31;;;15.14;65.13
7180;BME280;3631;42.152;24.756;2022-10-17T07:24:44;101094.44;;;15.46;64.44
7180;BME280;3631;42.152;24.756;2022-10-17T07:27:12;101088.41;;;15.42;64.37
7180;BME280;3631;42.152;24.756;2022-10-17T07:29:39;101100.56;;;15.45;64.15
7180;BME280;3631;42.152;24.756;2022-10-17T07:32:06;101098.25;;;15.33;65.14
7180;BME280;3631;42.152;24.756;2022-10-17T07:34:34;101100.03;;;15.31;65.43
7180;BME280;3631;42.152;24.756;2022-10-17T07:37:01;101093.22;;;15.23;66.20
7180;BME280;3631;42.152;24.756;2022-10-17T07:39:30;101096.56;;;15.29;66.51
7180;BME280;3631;42.152;24.756;2022-10-17T07:42:00;101092.03;;;15.35;66.43
7180;BME280;3631;42.152;24.756;2022-10-17T07:44:26;101090.53;;;15.25;67.06
7180;BME280;3631;42.152;24.756;2022-10-17T07:46:53;101092.47;;;15.17;67.32
7180;BME280;3631;42.152;24.756;2022-10-17T07:49:20;101093.22;;;15.23;67.57
7180;BME280;3631;42.152;24.756;2022-10-17T07:51:47;101058.00;;;15.00;67.60
7180;BME280;3631;42.152;24.756;2022-10-17T07:54:14;101087.34;;;15.12;68.08
7180;BME280;3631;42.152;24.756;2022-10-17T07:56:42;101088.16;;;15.14;68.85
7180;BME280;3631;42.152;24.756;2022-10-17T07:59:15;101087.94;;;15.25;68.36
7180;BME280;3631;42.152;24.756;2022-10-17T08:01:42;101071.72;;;15.11;68.87
7180;BME280;3631;42.152;24.756;2022-10-17T08:04:09;101073.38;;;15.13;68.66
7180;BME280;3631;42.152;24.756;2022-10-17T08:06:36;101078.16;;;14.95;68.93
7180;BME280;3631;42.152;24.756;2022-10-17T08:09:02;101054.03;;;14.82;69.09
7180;BME280;3631;42.152;24.756;2022-10-17T08:11:30;101071.22;;;14.92;69.05
7180;BME280;3631;42.152;24.756;2022-10-17T08:13:58;101078.13;;;14.96;69.19
7180;BME280;3631;42.152;24.756;2022-10-17T08:16:25;101061.75;;;14.88;68.72
7180;BME280;3631;42.152;24.756;2022-10-17T08:18:52;101073.00;;;14.90;68.70
7180;BME280;3631;42.152;24.756;2022-10-17T08:21:19;101070.34;;;14.93;68.48
7180;BME280;3631;42.152;24.756;2022-10-17T08:23:46;101069.13;;;15.09;68.18
7180;BME280;3631;42.152;24.756;2022-10-17T08:26:13;101068.06;;;15.16;67.80
7180;BME280;3631;42.152;24.756;2022-10-17T08:28:41;101056.97;;;15.07;67.34
7180;BME280;3631;42.152;24.756;2022-10-17T08:31:11;101064.81;;;15.07;68.87
7180;BME280;3631;42.152;24.756;2022-10-17T08:33:39;101069.03;;;15.12;67.81
7180;BME280;3631;42.152;24.756;2022-10-17T08:36:07;101081.91;;;15.23;67.67
7180;BME280;3631;42.152;24.756;2022-10-17T08:38:35;101074.97;;;15.20;68.06
7180;BME280;3631;42.152;24.756;2022-10-17T08:41:10;101068.28;;;15.07;67.69
7180;BME280;3631;42.152;24.756;2022-10-17T08:43:50;101069.13;;;15.09;68.38
7180;BME280;3631;42.152;24.756;2022-10-17T08:46:29;101073.25;;;15.19;69.40
7180;BME280;3631;42.152;24.756;2022-10-17T08:48:58;101077.53;;;15.23;68.05
7180;BME280;3631;42.152;24.756;2022-10-17T08:51:28;101074.91;;;15.23;67.48
7180;BME280;3631;42.152;24.756;2022-10-17T08:54:02;101066.31;;;15.17;67.03
7180;BME280;3631;42.152;24.756;2022-10-17T08:56:33;101064.66;;;15.13;67.33
7180;BME280;3631;42.152;24.756;2022-10-17T08:59:04;101071.38;;;15.24;68.04
7180;BME280;3631;42.152;24.756;2022-10-17T09:01:35;101066.09;;;15.26;67.32
7180;BME280;3631;42.152;24.756;2022-10-17T09:04:35;101060.63;;;15.37;72.92
7180;BME280;3631;42.152;24.756;2022-10-17T09:07:11;101060.59;;;15.38;67.56
7180;BME280;3631;42.152;24.756;2022-10-17T09:09:45;101060.31;;;15.49;71.33
7180;BME280;3631;42.152;24.756;2022-10-17T09:12:19;101054.84;;;15.59;66.00
7180;BME280;3631;42.152;24.756;2022-10-17T09:15:18;101054.06;;;15.57;70.65
7180;BME280;3631;42.152;24.756;2022-10-17T09:17:54;101056.47;;;15.65;65.92
7180;BME280;3631;42.152;24.756;2022-10-17T09:20:25;101048.16;;;15.83;67.12
7180;BME280;3631;42.152;24.756;2022-10-17T09:22:56;101045.53;;;15.83;64.08
7180;BME280;3631;42.152;24.756;2022-10-17T09:25:24;101048.88;;;15.90;61.40
7180;BME280;3631;42.152;24.756;2022-10-17T09:27:55;101048.31;;;16.10;60.29
7180;BME280;3631;42.152;24.756;2022-10-17T09:30:32;101058.53;;;16.19;59.05
7180;BME280;3631;42.152;24.756;2022-10-17T09:33:09;101046.22;;;16.22;57.90
7180;BME280;3631;42.152;24.756;2022-10-17T09:35:37;101043.44;;;16.28;60.17
7180;BME280;3631;42.152;24.756;2022-10-17T09:38:12;101039.69;;;16.37;58.14
7180;BME280;3631;42.152;24.756;2022-10-17T09:40:42;101027.59;;;16.33;56.92
7180;BME280;3631;42.152;24.756;2022-10-17T09:43:11;101051.38;;;16.56;55.20
7180;BME280;3631;42.152;24.756;2022-10-17T09:45:44;101044.22;;;16.61;55.17
7180;BME280;3631;42.152;24.756;2022-10-17T09:48:21;101044.06;;;16.69;56.29
7180;BME280;3631;42.152;24.756;2022-10-17T09:50:51;101040.78;;;16.59;55.47
7180;BME280;3631;42.152;24.756;2022-10-17T09:53:21;101038.91;;;16.66;53.88
7180;BME280;3631;42.152;24.756;2022-10-17T09:55:53;101040.25;;;16.79;52.94
7180;BME280;3631;42.152;24.756;2022-10-17T09:58:21;101036.84;;;16.76;55.64
7180;BME280;3631;42.152;24.756;2022-10-17T10:00:49;101033.94;;;16.85;56.21
7180;BME280;3631;42.152;24.756;2022-10-17T10:03:18;101025.78;;;16.66;50.61
7180;BME280;3631;42.152;24.756;2022-10-17T10:06:00;101033.03;;;16.86;46.85
7180;BME280;3631;42.152;24.756;2022-10-17T10:08:30;101023.97;;;16.96;48.29
7180;BME280;3631;42.152;24.756;2022-10-17T10:10:59;101020.97;;;17.08;47.81
7180;BME280;3631;42.152;24.756;2022-10-17T10:13:29;101014.00;;;17.07;47.55
7180;BME280;3631;42.152;24.756;2022-10-17T10:16:17;101022.09;;;17.27;45.28
7180;BME280;3631;42.152;24.756;2022-10-17T10:18:46;101005.41;;;17.30;46.10
7180;BME280;3631;42.152;24.756;2022-10-17T10:21:15;100992.31;;;17.28;45.78
7180;BME280;3631;42.152;24.756;2022-10-17T10:23:43;101008.28;;;17.49;45.87
7180;BME280;3631;42.152;24.756;2022-10-17T10:26:20;101011.16;;;17.41;44.32
7180;BME280;3631;42.152;24.756;2022-10-17T10:28:53;101005.84;;;17.42;42.82
7180;BME280;3631;42.152;24.756;2022-10-17T10:31:30;101007.84;;;17.61;42.02
7180;BME280;3631;42.152;24.756;2022-10-17T10:34:02;100999.81;;;17.67;43.02
7180;BME280;3631;42.152;24.756;2022-10-17T10:36:46;101007.56;;;17.71;42.23
7180;BME280;3631;42.152;24.756;2022-10-17T10:39:30;100996.88;;;17.76;40.81
7180;BME280;3631;42.152;24.756;2022-10-17T10:41:58;100996.53;;;17.85;41.12
7180;BME280;3631;42.152;24.756;2022-10-17T10:44:28;100996.44;;;17.88;40.85
7180;BME280;3631;42.152;24.756;2022-10-17T10:47:08;100982.41;;;17.89;41.15
7180;BME280;3631;42.152;24.756;2022-10-17T10:49:42;100988.56;;;17.88;42.25
7180;BME280;3631;42.152;24.756;2022-10-17T10:52:12;100987.31;;;17.98;44.95
7180;BME280;3631;42.152;24.756;2022-10-17T10:54:48;100985.72;;;17.94;43.89
7180;BME280;3631;42.152;24.756;2022-10-17T10:57:20;100975.03;;;17.99;42.62
7180;BME280;3631;42.152;24.756;2022-10-17T10:59:54;100972.31;;;18.02;43.37
7180;BME280;3631;42.152;24.756;2022-10-17T11:02:26;100972.00;;;18.09;42.85
7180;BME280;3631;42.152;24.756;2022-10-17T11:05:00;100970.16;;;18.13;42.73
7180;BME280;3631;42.152;24.756;2022-10-17T11:07:31;100956.59;;;18.00;45.68
7180;BME280;3631;42.152;24.756;2022-10-17T11:10:07;100972.94;;;18.08;42.86
7180;BME280;3631;42.152;24.756;2022-10-17T11:12:40;100957.06;;;18.11;42.73
7180;BME280;3631;42.152;24.756;2022-10-17T11:15:17;100971.34;;;18.28;42.60
7180;BME280;3631;42.152;24.756;2022-10-17T11:17:54;100966.56;;;18.16;44.56
7180;BME280;3631;42.152;24.756;2022-10-17T11:20:31;100969.50;;;18.06;43.76
7180;BME280;3631;42.152;24.756;2022-10-17T11:23:11;100957.28;;;18.05;43.31
7180;BME280;3631;42.152;24.756;2022-10-17T11:25:45;100948.75;;;17.99;43.67
7180;BME280;3631;42.152;24.756;2022-10-17T11:28:15;100946.09;;;18.00;43.63
7180;BME280;3631;42.152;24.756;2022-10-17T11:30:50;100948.41;;;18.08;44.46
7180;BME280;3631;42.152;24.756;2022-10-17T11:33:25;100941.78;;;17.98;44.57
7180;BME280;3631;42.152;24.756;2022-10-17T11:36:00;100939.81;;;18.04;44.10
7180;BME280;3631;42.152;24.756;2022-10-17T11:38:37;100921.34;;;18.06;44.32
7180;BME280;3631;42.152;24.756;2022-10-17T11:41:09;100921.19;;;18.10;44.10
7180;BME280;3631;42.152;24.756;2022-10-17T11:43:41;100915.72;;;18.17;44.09
7180;BME280;3631;42.152;24.756;2022-10-17T11:46:14;100932.84;;;18.27;43.56
7180;BME280;3631;42.152;24.756;2022-10-17T11:48:50;100921.41;;;18.28;44.02
7180;BME280;3631;42.152;24.756;2022-10-17T11:51:21;100921.63;;;18.22;43.31
7180;BME280;3631;42.152;24.756;2022-10-17T11:53:54;100917.94;;;18.27;43.96
7180;BME280;3631;42.152;24.756;2022-10-17T11:56:27;100916.03;;;18.31;44.05
7180;BME280;3631;42.152;24.756;2022-10-17T11:59:03;100917.38;;;18.41;43.03
7180;BME280;3631;42.152;24.756;2022-10-17T12:01:34;100908.22;;;18.51;42.77
7180;BME280;3631;42.152;24.756;2022-10-17T12:04:15;100912.44;;;18.55;42.67
7180;BME280;3631;42.152;24.756;2022-10-17T12:06:51;100912.09;;;18.64;42.57
7180;BME280;3631;42.152;24.756;2022-10-17T12:09:25;100917.50;;;18.61;42.32
7180;BME280;3631;42.152;24.756;2022-10-17T12:11:59;100921.00;;;18.62;42.53
7180;BME280;3631;42.152;24.756;2022-10-17T12:14:39;100923.44;;;18.66;42.02
7180;BME280;3631;42.152;24.756;2022-10-17T12:17:22;100915.53;;;18.66;42.23
7180;BME280;3631;42.152;24.756;2022-10-17T12:19:51;100902.50;;;18.63;42.61
7180;BME280;3631;42.152;24.756;2022-10-17T12:22:21;100918.28;;;18.63;42.65
7180;BME280;3631;42.152;24.756;2022-10-17T12:24:59;100911.13;;;18.67;42.55
7180;BME280;3631;42.152;24.756;2022-10-17T12:30:17;100901.28;;;18.72;43.15
7180;BME280;3631;42.152;24.756;2022-10-17T12:33:00;100908.34;;;18.71;43.24
7180;BME280;3631;42.152;24.756;2022-10-17T12:35:29;100902.00;;;18.75;43.72
7180;BME280;3631;42.152;24.756;2022-10-17T12:38:22;100905.69;;;18.71;43.72
7180;BME280;3631;42.152;24.756;2022-10-17T12:40:54;100901.59;;;18.64;43.42
7180;BME280;3631;42.152;24.756;2022-10-17T12:43:49;100892.31;;;18.54;43.63
7180;BME280;3631;42.152;24.756;2022-10-17T12:49:40;100908.59;;;18.85;42.96
7180;BME280;3631;42.152;24.756;2022-10-17T12:55:11;100908.53;;;18.87;43.02
7180;BME280;3631;42.152;24.756;2022-10-17T12:57:49;100905.06;;;18.86;42.34
7180;BME280;3631;42.152;24.756;2022-10-17T13:00:24;100904.88;;;18.91;41.62
7180;BME280;3631;42.152;24.756;2022-10-17T13:02:55;100875.34;;;18.84;41.34
7180;BME280;3631;42.152;24.756;2022-10-17T13:05:29;100903.22;;;18.89;41.76
7180;BME280;3631;42.152;24.756;2022-10-17T13:08:00;100905.97;;;18.85;41.85
7180;BME280;3631;42.152;24.756;2022-10-17T13:10:31;100904.28;;;18.84;42.22
7180;BME280;3631;42.152;24.756;2022-10-17T13:13:04;100907.94;;;18.80;43.04
7180;BME280;3631;42.152;24.756;2022-10-17T13:15:32;100906.94;;;18.84;42.52
7180;BME280;3631;42.152;24.756;2022-10-17T13:18:00;100910.31;;;18.86;42.90
7180;BME280;3631;42.152;24.756;2022-10-17T13:20:29;100890.03;;;18.68;43.38
7180;BME280;3631;42.152;24.756;2022-10-17T13:22:56;100912.94;;;18.86;42.81
7180;BME280;3631;42.152;24.756;2022-10-17T13:25:25;100908.00;;;19.01;42.47
7180;BME280;3631;42.152;24.756;2022-10-17T13:28:06;100909.66;;;19.03;42.57
7180;BME280;3631;42.152;24.756;2022-10-17T13:30:36;100893.31;;;18.95;43.23
7180;BME280;3631;42.152;24.756;2022-10-17T13:33:17;100902.66;;;19.02;42.49